Time;durP1;ratioP1;P1;durP2;ratioP2;P2;SDS_P1;SDS_P2;PMS_P1;PMS_P2;Temp;Humidity;BMP_temperature;BMP_pressure;BME280_temperature;BME280_humidity;BME280_pressure;Samples;Min_cycle;Max_cycle;Signal;HPM_P1;HPM_P2
2023/06/05 00:00:46;;;;;;;0.00;0.00;;;;;;;;;;6274565;22;20379;-89
2023/06/05 00:03:12;;;;;;;0.00;0.00;;;;;;;;;;6275355;22;20008;-88
2023/06/05 00:05:38;;;;;;;0.00;0.00;;;;;;;;;;6291106;22;20019;-84
2023/06/05 00:08:04;;;;;;;0.00;0.00;;;;;;;;;;6304295;22;19999;-86
2023/06/05 00:10:30;;;;;;;0.00;0.00;;;;;;;;;;6304755;22;20072;-87
2023/06/05 00:12:56;;;;;;;0.00;0.00;;;;;;;;;;6302008;22;20021;-86
2023/06/05 00:15:22;;;;;;;0.00;0.00;;;;;;;;;;6303622;22;20454;-86
2023/06/05 00:17:48;;;;;;;0.00;0.00;;;;;;;;;;6303628;22;20007;-85
2023/06/05 00:20:14;;;;;;;0.00;0.00;;;;;;;;;;6304761;22;20025;-86
2023/06/05 00:22:40;;;;;;;0.00;0.00;;;13.00;99.90;;;;;;6304096;22;20008;-84
2023/06/05 00:25:06;;;;;;;0.00;0.00;;;15.90;99.90;;;;;;6303945;22;20482;-88
2023/06/05 00:27:31;;;;;;;0.00;0.00;;;13.10;99.90;;;;;;6303865;22;20007;-85
2023/06/05 00:29:57;;;;;;;0.00;0.00;;;;;;;;;;6303647;22;20003;-87
2023/06/05 00:32:23;;;;;;;0.00;0.00;;;;;;;;;;6304715;22;20007;-87
2023/06/05 00:34:52;;;;;;;0.00;0.00;;;;;;;;;;6302329;22;20000;-86
2023/06/05 00:37:19;;;;;;;0.00;0.00;;;13.00;99.90;;;;;;6304565;22;20075;-86
2023/06/05 00:39:45;;;;;;;0.00;0.00;;;12.60;99.90;;;;;;6303350;22;20000;-87
2023/06/05 00:42:11;;;;;;;0.00;0.00;;;;;;;;;;6303843;22;20010;-87
2023/06/05 00:44:36;;;;;;;0.00;0.00;;;13.00;99.90;;;;;;6303718;22;20309;-86
2023/06/05 00:47:03;;;;;;;0.00;0.00;;;12.80;99.90;;;;;;6304601;22;20039;-85
2023/06/05 00:49:29;;;;;;;0.00;0.00;;;12.70;99.90;;;;;;6304353;22;19995;-90
2023/06/05 00:51:56;;;;;;;0.00;0.00;;;12.70;99.90;;;;;;6303908;22;20003;-87
2023/06/05 00:54:22;;;;;;;0.00;0.00;;;12.60;99.90;;;;;;6303782;22;19995;-87
2023/06/05 00:56:48;;;;;;;0.00;0.00;;;12.50;99.90;;;;;;6303569;22;20010;-87
2023/06/05 00:59:14;;;;;;;0.00;0.00;;;;;;;;;;6302126;22;20007;-88
2023/06/05 01:01:43;;;;;;;0.00;0.00;;;12.40;99.90;;;;;;6303311;22;20030;-85
2023/06/05 01:04:09;;;;;;;0.00;0.00;;;;;;;;;;6300598;22;20042;-86
2023/06/05 01:06:35;;;;;;;0.00;0.00;;;;;;;;;;6302921;22;20003;-89
2023/06/05 01:09:02;;;;;;;0.00;0.00;;;12.30;99.90;;;;;;6302393;22;20015;-92
2023/06/05 01:11:42;;;;;;;0.00;0.00;;;12.70;99.90;;;;;;6304095;22;20026;-89
2023/06/05 01:14:17;;;;;;;0.00;0.00;;;12.30;99.90;;;;;;6302548;22;20061;-87
2023/06/05 01:16:47;;;;;;;0.00;0.00;;;12.20;99.90;;;;;;6303720;22;20007;-87
2023/06/05 01:19:14;;;;;;;0.00;0.00;;;11.90;99.90;;;;;;6303563;22;20064;-89
2023/06/05 01:21:40;;;;;;;0.00;0.00;;;12.20;99.90;;;;;;6303576;22;20010;-87
2023/06/05 01:24:06;;;;;;;0.00;0.00;;;;;;;;;;6299915;22;20007;-86
2023/06/05 01:27:12;;;;;;;0.00;0.00;;;12.10;99.90;;;;;;6302040;22;20438;-82
2023/06/05 01:30:00;;;;;;;0.00;0.00;;;12.20;99.90;;;;;;6304096;22;20010;-86
2023/06/05 01:32:37;;;;;;;0.00;0.00;;;12.10;99.90;;;;;;6304232;22;19995;-88
2023/06/05 01:35:09;;;;;;;0.00;0.00;;;12.00;99.90;;;;;;6303732;22;20064;-90
2023/06/05 01:37:40;;;;;;;0.00;0.00;;;11.90;99.90;;;;;;6303117;22;20007;-90
2023/06/05 01:40:17;;;;;;;0.00;0.00;;;11.90;99.90;;;;;;6304003;22;19996;-88
2023/06/05 01:42:44;;;;;;;0.00;0.00;;;11.70;99.90;;;;;;6303708;22;20014;-90
2023/06/05 01:45:11;;;;;;;0.00;0.00;;;11.40;99.90;;;;;;6303214;22;20045;-87
2023/06/05 01:47:40;;;;;;;0.00;0.00;;;11.40;99.90;;;;;;6300886;22;20015;-86
2023/06/05 01:50:14;;;;;;;0.10;0.10;;;;;;;;;;6279086;22;20026;-87
2023/06/05 01:52:44;;;;;;;0.10;0.10;;;11.40;99.90;;;;;;6303894;22;19999;-83
2023/06/05 01:55:16;;;;;;;0.00;0.00;;;11.50;99.90;;;;;;6303164;22;20347;-87
2023/06/05 01:57:42;;;;;;;0.00;0.00;;;10.90;99.90;;;;;;6303644;22;19999;-86
2023/06/05 02:00:12;;;;;;;0.00;0.00;;;11.40;99.90;;;;;;6304672;22;20458;-87
2023/06/05 02:02:41;;;;;;;0.10;0.10;;;11.50;99.90;;;;;;6303056;22;20027;-89
2023/06/05 02:05:08;;;;;;;0.00;0.00;;;11.60;99.90;;;;;;6305282;22;20046;-88
2023/06/05 02:07:36;;;;;;;0.00;0.00;;;11.50;99.90;;;;;;6304922;22;20087;-85
2023/06/05 02:10:02;;;;;;;0.00;0.00;;;;;;;;;;6303908;22;20383;-89
2023/06/05 02:12:29;;;;;;;0.00;0.00;;;11.50;99.90;;;;;;6306101;22;20007;-85
2023/06/05 02:14:55;;;;;;;0.00;0.00;;;11.30;99.90;;;;;;6304528;22;20400;-87
2023/06/05 02:17:22;;;;;;;0.00;0.00;;;;;;;;;;6303882;22;20007;-89
2023/06/05 02:19:48;;;;;;;0.00;0.00;;;;;;;;;;6304691;22;20011;-90
2023/06/05 02:22:14;;;;;;;0.10;0.10;;;;;;;;;;6305361;22;20087;-87
2023/06/05 02:24:40;;;;;;;0.00;0.00;;;11.30;99.90;;;;;;6304934;22;20015;-88
2023/06/05 02:27:08;;;;;;;0.10;0.10;;;;;;;;;;6304287;22;20002;-86
2023/06/05 02:29:33;;;;;;;0.00;0.00;;;11.20;99.90;;;;;;6305554;22;20000;-89
2023/06/05 02:31:58;;;;;;;0.00;0.00;;;11.20;99.90;;;;;;6305002;22;20059;-90
2023/06/05 02:34:24;;;;;;;0.00;0.00;;;;;;;;;;6304735;22;20041;-90
2023/06/05 02:36:50;;;;;;;0.10;0.10;;;;;;;;;;6305714;22;20007;-89
2023/06/05 02:39:17;;;;;;;0.00;0.00;;;;;;;;;;6305876;22;20017;-89
2023/06/05 02:41:44;;;;;;;0.00;0.00;;;11.00;99.90;;;;;;6303909;22;20003;-87
2023/06/05 02:44:09;;;;;;;0.00;0.00;;;11.10;99.90;;;;;;6303989;22;20003;-89
2023/06/05 02:46:35;;;;;;;0.00;0.00;;;;;;;;;;6305237;22;20014;-89
2023/06/05 02:49:01;;;;;;;0.00;0.00;;;11.00;99.90;;;;;;6304204;22;20003;-88
2023/06/05 02:51:26;;;;;;;0.00;0.00;;;11.00;99.90;;;;;;6304934;22;20011;-89
2023/06/05 02:53:52;;;;;;;0.00;0.00;;;;;;;;;;6306615;22;20450;-90
2023/06/05 02:56:17;;;;;;;0.00;0.00;;;10.90;99.90;;;;;;6306783;22;20049;-89
2023/06/05 02:58:45;;;;;;;0.00;0.00;;;;;;;;;;6305260;22;19996;-87
2023/06/05 03:01:12;;;;;;;0.00;0.00;;;;;;;;;;6304475;22;20329;-90
2023/06/05 03:03:38;;;;;;;0.00;0.00;;;;;;;;;;6306293;22;20006;-90
2023/06/05 03:06:04;;;;;;;0.00;0.00;;;;;;;;;;6304861;22;20011;-88
2023/06/05 03:08:36;;;;;;;0.00;0.00;;;10.70;99.90;;;;;;6305351;22;20019;-88
2023/06/05 03:11:03;;;;;;;0.00;0.00;;;10.60;99.90;;;;;;6304931;22;20440;-91
2023/06/05 03:13:29;;;;;;;0.00;0.00;;;10.80;99.90;;;;;;6304715;22;19999;-90
2023/06/05 03:16:00;;;;;;;0.00;0.00;;;10.80;99.90;;;;;;6304797;22;20012;-90
2023/06/05 03:18:26;;;;;;;0.00;0.00;;;10.70;99.90;;;;;;6308277;22;20498;-86
2023/06/05 03:20:56;;;;;;;0.10;0.10;;;10.80;99.90;;;;;;6328731;22;20477;-87
2023/06/05 03:23:27;;;;;;;0.00;0.00;;;10.60;99.90;;;;;;6310531;22;20094;-86
2023/06/05 03:25:53;;;;;;;0.10;0.10;;;10.50;99.90;;;;;;6302552;22;20014;-89
2023/06/05 03:28:19;;;;;;;0.03;0.03;;;;;;;;;;6302512;22;19999;-88
2023/06/05 03:30:46;;;;;;;0.00;0.00;;;;;;;;;;6304174;22;20431;-84
2023/06/05 03:33:13;;;;;;;0.10;0.10;;;10.30;99.90;;;;;;6303882;22;20466;-89
2023/06/05 03:35:40;;;;;;;0.10;0.10;;;;;;;;;;6304615;22;20435;-86
2023/06/05 03:38:05;;;;;;;0.10;0.10;;;10.20;99.90;;;;;;6303773;22;20485;-90
2023/06/05 03:40:31;;;;;;;0.10;0.10;;;;;;;;;;6304814;22;20003;-87
2023/06/05 03:42:57;;;;;;;0.00;0.00;;;;;;;;;;6302880;22;20018;-86
2023/06/05 03:45:26;;;;;;;0.00;0.00;;;9.90;99.90;;;;;;6304405;22;19999;-86
2023/06/05 03:47:52;;;;;;;0.00;0.00;;;;;;;;;;6303147;22;20450;-86
2023/06/05 03:50:23;;;;;;;0.10;0.10;;;9.80;99.90;;;;;;6304076;22;20086;-86
2023/06/05 03:52:52;;;;;;;0.00;0.00;;;;;;;;;;6303363;22;20112;-89
2023/06/05 03:55:19;;;;;;;0.10;0.10;;;;;;;;;;6303572;22;20094;-86
2023/06/05 03:57:52;;;;;;;0.00;0.00;;;9.70;99.90;;;;;;6302933;22;20011;-86
2023/06/05 04:00:18;;;;;;;0.10;0.10;;;;;;;;;;6303382;22;20007;-87
2023/06/05 04:02:44;;;;;;;0.10;0.10;;;;;;;;;;6302281;22;20082;-86
2023/06/05 04:05:13;;;;;;;0.10;0.10;;;;;;;;;;6303088;22;20007;-88
2023/06/05 04:07:39;;;;;;;0.10;0.10;;;;;;;;;;6303665;22;20112;-88
2023/06/05 04:10:05;;;;;;;0.10;0.10;;;;;;;;;;6300778;22;19999;-89
2023/06/05 04:12:31;;;;;;;0.10;0.10;;;;;;;;;;6302751;22;19999;-86
2023/06/05 04:14:59;;;;;;;0.10;0.10;;;;;;;;;;6303490;22;20084;-86
2023/06/05 04:17:25;;;;;;;0.08;0.08;;;;;;;;;;6303080;22;20030;-86
2023/06/05 04:19:51;;;;;;;0.00;0.00;;;;;;;;;;6304417;22;20332;-86
2023/06/05 04:22:17;;;;;;;0.00;0.00;;;;;;;;;;6305102;22;20351;-88
2023/06/05 04:24:43;;;;;;;0.00;0.00;;;;;;;;;;6305291;22;20007;-86
2023/06/05 04:27:08;;;;;;;0.00;0.00;;;;;;;;;;6303730;22;20431;-86
2023/06/05 04:29:34;;;;;;;0.10;0.10;;;10.50;99.90;;;;;;6303875;22;20378;-87
2023/06/05 04:32:00;;;;;;;0.00;0.00;;;;;;;;;;6304166;22;19999;-89
2023/06/05 04:34:26;;;;;;;0.00;0.00;;;;;;;;;;6302709;22;20007;-87
2023/06/05 04:36:52;;;;;;;0.00;0.00;;;;;;;;;;6303928;22;20011;-87
2023/06/05 04:39:18;;;;;;;0.10;0.10;;;11.10;99.90;;;;;;6302756;22;20017;-87
2023/06/05 04:41:45;;;;;;;0.00;0.00;;;;;;;;;;6301239;22;20439;-86
2023/06/05 04:44:16;;;;;;;0.10;0.10;;;11.20;99.90;;;;;;6301520;22;20031;-86
2023/06/05 04:46:43;;;;;;;0.10;0.10;;;;;;;;;;6302097;22;20054;-85
2023/06/05 04:49:10;;;;;;;0.00;0.00;;;11.30;99.90;;;;;;6303481;22;20003;-90
2023/06/05 04:51:36;;;;;;;0.08;0.08;;;11.40;99.90;;;;;;6302635;22;20172;-86
2023/06/05 04:54:03;;;;;;;0.00;0.00;;;11.40;99.90;;;;;;6303771;22;20016;-84
2023/06/05 04:56:28;;;;;;;0.00;0.00;;;11.30;99.90;;;;;;6304352;22;20052;-89
2023/06/05 04:58:54;;;;;;;0.00;0.00;;;;;;;;;;6304254;22;20019;-87
2023/06/05 05:01:20;;;;;;;0.00;0.00;;;;;;;;;;6303849;22;20046;-87
2023/06/05 05:03:46;;;;;;;0.00;0.00;;;11.50;99.90;;;;;;6300405;22;20014;-87
2023/06/05 05:06:14;;;;;;;0.00;0.00;;;11.60;99.90;;;;;;6302349;22;20276;-90
2023/06/05 05:08:40;;;;;;;0.10;0.10;;;11.60;99.90;;;;;;6301014;22;20010;-86
2023/06/05 05:11:06;;;;;;;0.00;0.00;;;;;;;;;;6302810;22;20075;-86
2023/06/05 05:13:31;;;;;;;0.00;0.00;;;11.80;99.90;;;;;;6301238;22;20006;-86
2023/06/05 05:15:57;;;;;;;0.10;0.10;;;;;;;;;;6304537;22;20007;-88
2023/06/05 05:18:23;;;;;;;0.00;0.00;;;;;;;;;;6304849;22;20042;-86
2023/06/05 05:20:49;;;;;;;0.00;0.00;;;11.90;99.90;;;;;;6304539;22;20031;-86
2023/06/05 05:23:15;;;;;;;0.00;0.00;;;12.00;99.90;;;;;;6306740;22;20011;-89
2023/06/05 05:25:41;;;;;;;0.00;0.00;;;;;;;;;;6305663;22;20590;-88
2023/06/05 05:28:07;;;;;;;0.00;0.00;;;;;;;;;;6304937;22;20350;-86
2023/06/05 05:30:33;;;;;;;0.00;0.00;;;12.10;99.90;;;;;;6304356;22;20010;-88
2023/06/05 05:32:58;;;;;;;0.00;0.00;;;12.20;99.90;;;;;;6304448;22;19999;-88
2023/06/05 05:35:24;;;;;;;0.00;0.00;;;12.20;99.90;;;;;;6304400;22;19999;-87
2023/06/05 05:37:50;;;;;;;0.00;0.00;;;;;;;;;;6303037;22;20409;-87
2023/06/05 05:40:16;;;;;;;0.00;0.00;;;12.30;99.90;;;;;;6301557;22;20003;-88
2023/06/05 05:42:42;;;;;;;0.00;0.00;;;;;;;;;;6302338;22;20439;-87
2023/06/05 05:45:08;;;;;;;0.00;0.00;;;12.30;99.90;;;;;;6301001;22;20011;-85
2023/06/05 05:47:34;;;;;;;0.00;0.00;;;12.20;99.90;;;;;;6301534;22;20034;-87
2023/06/05 05:49:59;;;;;;;0.00;0.00;;;12.20;99.90;;;;;;6304204;22;20006;-87
2023/06/05 05:52:25;;;;;;;0.00;0.00;;;12.30;99.90;;;;;;6303128;22;20010;-87
2023/06/05 05:54:51;;;;;;;0.00;0.00;;;12.50;99.90;;;;;;6304892;22;20004;-86
2023/06/05 05:57:17;;;;;;;0.00;0.00;;;12.60;99.90;;;;;;6301624;22;20423;-86
2023/06/05 05:59:44;;;;;;;0.00;0.00;;;;;;;;;;6303441;22;20090;-88
2023/06/05 06:02:11;;;;;;;0.00;0.00;;;12.80;99.90;;;;;;6306517;22;20134;-86
2023/06/05 06:04:38;;;;;;;0.00;0.00;;;13.00;99.90;;;;;;6305094;22;20094;-90
2023/06/05 06:07:05;;;;;;;0.00;0.00;;;13.20;99.90;;;;;;6299418;22;20405;-85
2023/06/05 06:09:31;;;;;;;0.00;0.00;;;13.40;99.90;;;;;;6305770;22;20044;-89
2023/06/05 06:11:57;;;;;;;0.00;0.00;;;13.00;99.90;;;;;;6303666;22;20010;-89
2023/06/05 06:14:23;;;;;;;0.00;0.00;;;;;;;;;;6304146;22;20013;-88
2023/06/05 06:16:53;;;;;;;0.00;0.00;;;;;;;;;;6304341;22;20011;-85
2023/06/05 06:19:23;;;;;;;0.00;0.00;;;;;;;;;;6304313;22;20427;-87
2023/06/05 06:21:49;;;;;;;0.00;0.00;;;;;;;;;;6298252;22;20038;-87
2023/06/05 06:24:15;;;;;;;0.00;0.00;;;;;;;;;;6305783;22;20003;-88
2023/06/05 06:26:42;;;;;;;0.00;0.00;;;13.40;99.90;;;;;;6304211;22;20007;-87
2023/06/05 06:29:08;;;;;;;0.00;0.00;;;13.30;99.90;;;;;;6305272;22;20355;-90
2023/06/05 06:31:33;;;;;;;0.00;0.00;;;13.00;99.90;;;;;;6304751;22;20006;-92
2023/06/05 06:33:59;;;;;;;0.00;0.00;;;;;;;;;;6304821;22;20062;-87
2023/06/05 06:36:26;;;;;;;0.00;0.00;;;;;;;;;;6303852;22;20003;-87
2023/06/05 06:38:52;;;;;;;0.00;0.00;;;13.40;99.90;;;;;;6306441;22;20083;-88
2023/06/05 06:41:18;;;;;;;0.00;0.00;;;;;;;;;;6305969;22;20007;-89
2023/06/05 06:43:44;;;;;;;0.00;0.00;;;;;;;;;;6305284;22;20030;-90
2023/06/05 06:46:10;;;;;;;0.00;0.00;;;;;;;;;;6305979;22;20081;-89
2023/06/05 06:48:36;;;;;;;0.00;0.00;;;;;;;;;;6305435;22;20003;-89
2023/06/05 06:51:02;;;;;;;0.00;0.00;;;;;;;;;;6304266;22;20436;-87
2023/06/05 06:53:28;;;;;;;0.00;0.00;;;;;;;;;;6305077;22;20470;-88
2023/06/05 06:55:53;;;;;;;0.00;0.00;;;14.00;99.90;;;;;;6305258;22;20060;-89
2023/06/05 06:58:19;;;;;;;0.00;0.00;;;;;;;;;;6308596;22;20308;-88
2023/06/05 07:00:45;;;;;;;0.00;0.00;;;;;;;;;;6307501;22;20022;-91
2023/06/05 07:03:11;;;;;;;0.00;0.00;;;13.80;99.90;;;;;;6306868;22;20003;-93
2023/06/05 07:05:37;;;;;;;0.00;0.00;;;;;;;;;;6308663;22;20034;-89
2023/06/05 07:08:02;;;;;;;0.00;0.00;;;14.30;99.90;;;;;;6309030;22;19999;-88
2023/06/05 07:10:29;;;;;;;0.00;0.00;;;14.20;99.90;;;;;;6309802;22;20000;-88
2023/06/05 07:12:54;;;;;;;0.00;0.00;;;14.20;99.90;;;;;;6309550;22;20011;-90
2023/06/05 07:15:20;;;;;;;0.00;0.00;;;;;;;;;;6310241;22;20063;-89
2023/06/05 07:17:46;;;;;;;0.00;0.00;;;;;;;;;;6309450;22;20003;-87
2023/06/05 07:20:12;;;;;;;0.00;0.00;;;;;;;;;;6308692;22;20003;-86
2023/06/05 07:22:42;;;;;;;0.00;0.00;;;14.70;99.90;;;;;;6311065;22;20258;-89
2023/06/05 07:25:09;;;;;;;0.00;0.00;;;14.70;99.90;;;;;;6309027;22;20431;-91
2023/06/05 07:27:35;;;;;;;0.00;0.00;;;14.60;99.90;;;;;;6310648;22;20458;-89
2023/06/05 07:30:01;;;;;;;0.00;0.00;;;14.80;99.90;;;;;;6309498;22;20094;-87
2023/06/05 07:32:26;;;;;;;0.00;0.00;;;14.90;99.90;;;;;;6309701;22;20011;-88
2023/06/05 07:34:52;;;;;;;0.00;0.00;;;;;;;;;;6310022;22;19995;-89
2023/06/05 07:37:18;;;;;;;0.00;0.00;;;;;;;;;;6311809;22;20031;-88
2023/06/05 07:39:44;;;;;;;0.00;0.00;;;15.20;99.90;;;;;;6312225;22;20049;-92
2023/06/05 07:42:10;;;;;;;0.00;0.00;;;;;;;;;;6310897;22;20015;-88
2023/06/05 07:44:35;;;;;;;0.00;0.00;;;15.20;99.90;;;;;;6310936;22;20018;-89
2023/06/05 07:47:01;;;;;;;0.00;0.00;;;;;;;;;;6311732;22;19999;-92
2023/06/05 07:49:30;;;;;;;0.00;0.00;;;15.10;99.90;;;;;;6313568;22;20007;-89
2023/06/05 07:51:57;;;;;;;0.00;0.00;;;15.20;99.90;;;;;;6311291;22;20007;-89
2023/06/05 07:54:23;;;;;;;0.00;0.00;;;15.40;99.90;;;;;;6319213;22;20019;-83
2023/06/05 07:56:51;;;;;;;0.00;0.00;;;15.30;99.90;;;;;;6334637;22;20005;-85
2023/06/05 07:59:17;;;;;;;0.00;0.00;;;15.50;99.90;;;;;;6328738;22;20007;-88
2023/06/05 08:01:43;;;;;;;0.00;0.00;;;15.70;99.90;;;;;;6304648;22;20030;-88
2023/06/05 08:04:12;;;;;;;0.00;0.00;;;;;;;;;;6304109;22;20435;-87
2023/06/05 08:06:38;;;;;;;0.00;0.00;;;15.90;99.90;;;;;;6304963;22;20011;-88
2023/06/05 08:09:04;;;;;;;0.00;0.00;;;15.90;99.90;;;;;;6307041;22;19999;-88
2023/06/05 08:11:30;;;;;;;0.00;0.00;;;15.90;99.90;;;;;;6304015;22;20073;-88
2023/06/05 08:13:56;;;;;;;0.00;0.00;;;;;;;;;;6303803;22;20435;-88
2023/06/05 08:16:22;;;;;;;0.00;0.00;;;16.10;99.90;;;;;;6304042;22;20006;-87
2023/06/05 08:18:47;;;;;;;0.00;0.00;;;;;;;;;;6305804;22;20007;-87
2023/06/05 08:21:14;;;;;;;0.00;0.00;;;;;;;;;;6303367;22;20029;-87
2023/06/05 08:23:39;;;;;;;0.00;0.00;;;16.40;99.90;;;;;;6304619;22;20076;-88
2023/06/05 08:26:10;;;;;;;0.00;0.00;;;;;;;;;;6301112;22;20620;-89
2023/06/05 08:28:41;;;;;;;0.00;0.00;;;16.60;99.90;;;;;;6304658;22;20461;-87
2023/06/05 08:31:07;;;;;;;0.00;0.00;;;16.70;99.90;;;;;;6302517;22;20081;-88
2023/06/05 08:33:34;;;;;;;0.00;0.00;;;16.70;99.90;;;;;;6303546;22;20447;-88
2023/06/05 08:36:01;;;;;;;0.00;0.00;;;19.20;99.90;;;;;;6303802;22;20003;-87
2023/06/05 08:38:26;;;;;;;0.00;0.00;;;16.50;99.90;;;;;;6305184;22;20100;-88
2023/06/05 08:40:59;;;;;;;0.00;0.00;;;16.60;99.90;;;;;;6304601;22;20316;-87
2023/06/05 08:43:25;;;;;;;0.00;0.00;;;16.60;99.90;;;;;;6302405;22;20013;-88
2023/06/05 08:45:56;;;;;;;0.00;0.00;;;16.80;99.90;;;;;;6303589;22;20082;-87
2023/06/05 08:48:24;;;;;;;0.00;0.00;;;16.90;99.90;;;;;;6305092;22;20026;-89
2023/06/05 08:50:50;;;;;;;0.00;0.00;;;17.00;99.90;;;;;;6304385;22;20386;-89
2023/06/05 08:53:17;;;;;;;0.00;0.00;;;17.20;99.90;;;;;;6303159;22;20033;-87
2023/06/05 08:55:45;;;;;;;0.00;0.00;;;17.20;99.90;;;;;;6304352;22;20087;-86
2023/06/05 08:58:13;;;;;;;0.00;0.00;;;17.20;99.90;;;;;;6304775;22;20000;-88
2023/06/05 09:00:39;;;;;;;0.00;0.00;;;17.30;99.90;;;;;;6304994;22;20014;-89
2023/06/05 09:03:05;;;;;;;0.00;0.00;;;18.00;99.90;;;;;;6303153;22;20003;-88
2023/06/05 09:05:31;;;;;;;0.00;0.00;;;19.20;99.90;;;;;;6304468;22;20007;-88
2023/06/05 09:07:58;;;;;;;0.00;0.00;;;;;;;;;;6305253;22;20014;-87
2023/06/05 09:10:25;;;;;;;0.00;0.00;;;17.80;99.90;;;;;;6305312;22;19999;-86
2023/06/05 09:12:55;;;;;;;0.00;0.00;;;17.80;99.90;;;;;;6303680;22;20007;-88
2023/06/05 09:15:25;;;;;;;0.00;0.00;;;18.00;99.90;;;;;;6305367;22;19999;-88
2023/06/05 09:18:12;;;;;;;0.00;0.00;;;17.90;99.90;;;;;;6301423;22;20010;-88
2023/06/05 09:20:45;;;;;;;0.00;0.00;;;17.80;99.90;;;;;;6302150;22;20004;-86
2023/06/05 09:23:28;;;;;;;0.00;0.00;;;19.00;99.90;;;;;;6301760;22;19999;-87
2023/06/05 09:25:57;;;;;;;0.00;0.00;;;19.70;99.90;;;;;;6301970;22;20104;-89
2023/06/05 09:28:23;;;;;;;0.00;0.00;;;;;;;;;;6301312;22;20010;-87
2023/06/05 09:31:00;;;;;;;0.00;0.00;;;18.40;99.90;;;;;;6302192;22;20005;-87
2023/06/05 09:33:31;;;;;;;0.00;0.00;;;18.40;99.90;;;;;;6302214;22;19999;-88
2023/06/05 09:36:04;;;;;;;0.00;0.00;;;18.40;99.90;;;;;;6301663;22;20497;-86
2023/06/05 09:38:30;;;;;;;0.00;0.00;;;18.60;99.90;;;;;;6303011;22;20000;-89
2023/06/05 09:41:23;;;;;;;0.00;0.00;;;18.40;99.90;;;;;;6302633;22;20030;-89
2023/06/05 09:43:49;;;;;;;0.00;0.00;;;18.60;99.90;;;;;;6296937;22;20070;-86
2023/06/05 09:46:15;;;;;;;0.00;0.00;;;18.70;99.90;;;;;;6303103;22;20034;-88
2023/06/05 09:48:43;;;;;;;0.00;0.00;;;20.40;99.90;;;;;;6302548;22;20078;-87
2023/06/05 09:51:13;;;;;;;0.00;0.00;;;18.60;99.90;;;;;;6301450;22;20347;-87
2023/06/05 09:53:43;;;;;;;;;;;18.90;99.90;;;;;;6303936;22;20085;-87
2023/06/05 09:56:11;;;;;;;;;;;19.10;99.90;;;;;;6303135;22;19949;-89
2023/06/05 09:58:37;;;;;;;0.00;0.00;;;19.20;99.90;;;;;;6303513;22;19906;-89
2023/06/05 10:01:07;;;;;;;0.00;0.00;;;19.20;99.90;;;;;;6302059;22;20269;-86
2023/06/05 10:03:36;;;;;;;0.00;0.00;;;19.30;99.90;;;;;;6303817;22;20420;-87
2023/06/05 10:06:04;;;;;;;0.00;0.00;;;19.20;99.90;;;;;;6302720;22;20474;-86
2023/06/05 10:08:30;;;;;;;0.00;0.00;;;19.30;99.60;;;;;;6304350;22;19996;-85
2023/06/05 10:10:57;;;;;;;0.00;0.00;;;19.50;99.20;;;;;;6303006;22;20034;-87
2023/06/05 10:13:23;;;;;;;0.00;0.00;;;19.50;99.40;;;;;;6301836;22;19999;-87
2023/06/05 10:15:52;;;;;;;0.00;0.00;;;19.80;98.40;;;;;;6303102;22;20378;-87
2023/06/05 10:18:17;;;;;;;0.00;0.00;;;;;;;;;;6301192;22;20011;-87
2023/06/05 10:20:46;;;;;;;0.00;0.00;;;19.90;97.90;;;;;;6303353;22;20014;-90
2023/06/05 10:23:12;;;;;;;0.00;0.00;;;;;;;;;;6302526;22;20101;-88
2023/06/05 10:25:39;;;;;;;0.00;0.00;;;;;;;;;;6302523;22;20030;-89
2023/06/05 10:28:16;;;;;;;0.00;0.00;;;20.00;95.30;;;;;;6303270;22;19999;-88
2023/06/05 10:31:30;;;;;;;0.00;0.00;;;19.90;95.00;;;;;;6303985;22;20475;-87
2023/06/05 10:34:01;;;;;;;0.00;0.00;;;20.20;95.70;;;;;;6183187;23;20011;-90
2023/06/05 10:36:50;;;;;;;0.00;0.00;;;20.30;96.80;;;;;;6183928;23;20013;-89
2023/06/05 10:39:17;;;;;;;0.00;0.00;;;20.70;95.30;;;;;;6269799;22;20003;-88
2023/06/05 10:41:43;;;;;;;0.00;0.00;;;20.40;94.90;;;;;;6301842;22;20007;-87
2023/06/05 10:44:09;;;;;;;0.00;0.00;;;;;;;;;;6303654;22;20011;-85
2023/06/05 10:46:38;;;;;;;0.00;0.00;;;20.70;93.90;;;;;;6302508;22;20003;-88
2023/06/05 10:49:17;;;;;;;0.00;0.00;;;20.70;94.10;;;;;;6303538;22;20015;-90
2023/06/05 10:51:44;;;;;;;0.00;0.00;;;21.10;94.00;;;;;;6303138;22;19999;-89
2023/06/05 10:54:15;;;;;;;0.00;0.00;;;21.00;94.10;;;;;;6303088;22;20484;-87
2023/06/05 10:56:56;;;;;;;0.00;0.00;;;21.10;92.80;;;;;;6303908;22;20010;-90
2023/06/05 10:59:27;;;;;;;0.00;0.00;;;21.10;93.50;;;;;;6303457;22;20380;-91
2023/06/05 11:02:25;;;;;;;0.00;0.00;;;21.20;91.70;;;;;;6303336;22;20086;-87
2023/06/05 11:04:53;;;;;;;0.00;0.00;;;21.20;90.60;;;;;;6303681;22;20024;-88
2023/06/05 11:07:26;;;;;;;0.00;0.00;;;21.40;90.90;;;;;;6301028;22;20238;-88
2023/06/05 11:10:20;;;;;;;0.00;0.00;;;21.50;90.20;;;;;;6301841;22;20003;-87
2023/06/05 11:12:46;;;;;;;0.00;0.00;;;;;;;;;;6301316;22;20446;-88
2023/06/05 11:15:23;;;;;;;0.00;0.00;;;21.60;91.50;;;;;;6300478;22;20003;-88
2023/06/05 11:17:50;;;;;;;0.00;0.00;;;21.70;86.70;;;;;;6300981;22;20041;-89
2023/06/05 11:20:24;;;;;;;0.00;0.00;;;21.70;87.90;;;;;;6300997;22;20041;-87
2023/06/05 11:22:52;;;;;;;0.00;0.00;;;21.80;85.30;;;;;;6301576;22;20097;-89
2023/06/05 11:25:21;;;;;;;0.00;0.00;;;;;;;;;;6299466;22;20003;-82
2023/06/05 11:28:01;;;;;;;0.00;0.00;;;22.00;85.70;;;;;;6300446;22;20018;-84
2023/06/05 11:30:31;;;;;;;;;;;22.00;87.90;;;;;;6302533;22;20467;-84
2023/06/05 11:32:58;;;;;;;0.00;0.00;;;;;;;;;;6300320;22;19907;-87
2023/06/05 11:35:29;;;;;;;0.00;0.00;;;22.00;84.50;;;;;;6301947;22;20070;-86
2023/06/05 11:38:12;;;;;;;0.00;0.00;;;21.80;88.80;;;;;;6303380;22;19996;-85
2023/06/05 11:40:39;;;;;;;0.00;0.00;;;22.30;83.20;;;;;;6302754;22;20419;-86
2023/06/05 11:43:06;;;;;;;0.00;0.00;;;22.40;83.70;;;;;;6304618;22;19999;-87
2023/06/05 11:45:37;;;;;;;0.00;0.00;;;22.50;83.10;;;;;;6299908;22;20004;-86
2023/06/05 11:48:13;;;;;;;0.00;0.00;;;22.50;83.60;;;;;;6302338;22;19999;-89
2023/06/05 11:50:50;;;;;;;0.00;0.00;;;22.70;83.40;;;;;;6304575;22;20003;-88
2023/06/05 11:53:16;;;;;;;0.00;0.00;;;22.70;83.90;;;;;;6304098;22;20352;-87
2023/06/05 11:58:27;;;;;;;0.00;0.00;;;22.80;81.20;;;;;;6318127;22;20011;-84
2023/06/05 12:01:17;;;;;;;0.00;0.00;;;22.80;81.40;;;;;;6304852;22;20003;-87
2023/06/05 12:03:43;;;;;;;0.00;0.00;;;;;;;;;;6297047;22;20011;-85
2023/06/05 12:06:12;;;;;;;0.00;0.00;;;22.70;76.80;;;;;;6303941;22;20011;-90
2023/06/05 12:08:38;;;;;;;0.00;0.00;;;;;;;;;;6302525;22;20015;-87
2023/06/05 12:11:18;;;;;;;0.00;0.00;;;22.80;79.10;;;;;;6304136;22;20431;-87
2023/06/05 12:13:51;;;;;;;0.00;0.00;;;22.90;76.90;;;;;;6302405;22;20003;-88
2023/06/05 12:16:18;;;;;;;0.00;0.00;;;22.90;77.00;;;;;;6314971;22;20011;-84
2023/06/05 12:18:45;;;;;;;0.00;0.00;;;23.00;78.30;;;;;;6315725;22;20007;-86
2023/06/05 12:21:25;;;;;;;0.00;0.00;;;22.80;78.60;;;;;;6299241;22;20501;-85
2023/06/05 12:23:52;;;;;;;0.00;0.00;;;;;;;;;;6300393;22;20054;-86
2023/06/05 12:26:18;;;;;;;0.00;0.00;;;23.10;71.30;;;;;;6301413;22;20008;-87
2023/06/05 12:28:46;;;;;;;0.00;0.00;;;23.30;71.40;;;;;;6297923;22;20014;-85
2023/06/05 12:31:33;;;;;;;0.00;0.00;;;23.40;70.10;;;;;;6298301;22;20010;-86
2023/06/05 12:33:59;;;;;;;0.00;0.00;;;23.40;71.10;;;;;;6299509;22;20056;-86
2023/06/05 12:36:25;;;;;;;0.00;0.00;;;;;;;;;;6299428;22;20003;-85
2023/06/05 12:38:51;;;;;;;0.00;0.00;;;;;;;;;;6301784;22;20007;-86
2023/06/05 12:41:17;;;;;;;0.00;0.00;;;;;;;;;;6301591;22;20441;-85
2023/06/05 12:43:43;;;;;;;0.00;0.00;;;;;;;;;;6300729;22;20034;-86
2023/06/05 12:46:08;;;;;;;0.00;0.00;;;23.60;68.00;;;;;;6301116;22;20003;-86
2023/06/05 12:48:38;;;;;;;0.00;0.00;;;23.40;68.30;;;;;;6301950;22;20305;-86
2023/06/05 12:51:04;;;;;;;0.00;0.00;;;;;;;;;;6303404;22;19999;-86
2023/06/05 12:53:30;;;;;;;0.00;0.00;;;;;;;;;;6302892;22;20010;-86
2023/06/05 12:55:56;;;;;;;0.00;0.00;;;;;;;;;;6302664;22;20086;-87
2023/06/05 12:58:22;;;;;;;0.00;0.00;;;;;;;;;;6301759;22;20038;-84
2023/06/05 13:00:48;;;;;;;0.00;0.00;;;;;;;;;;6301930;22;20439;-86
2023/06/05 13:03:14;;;;;;;0.00;0.00;;;23.80;73.00;;;;;;6303366;22;20010;-87
2023/06/05 13:05:39;;;;;;;0.00;0.00;;;24.00;76.20;;;;;;6303257;22;20007;-86
2023/06/05 13:08:06;;;;;;;0.00;0.00;;;25.50;73.40;;;;;;6302495;22;20335;-85
2023/06/05 13:10:31;;;;;;;0.00;0.00;;;24.20;68.00;;;;;;6302530;22;20002;-87
2023/06/05 13:12:57;;;;;;;0.00;0.00;;;;;;;;;;6303693;22;20022;-87
2023/06/05 13:15:23;;;;;;;0.00;0.00;;;24.00;67.90;;;;;;6303368;22;20094;-84
2023/06/05 13:17:49;;;;;;;0.00;0.00;;;;;;;;;;6302095;22;20052;-85
2023/06/05 13:20:15;;;;;;;0.00;0.00;;;24.00;67.10;;;;;;6303505;22;19999;-85
2023/06/05 13:22:41;;;;;;;0.00;0.00;;;;;;;;;;6298874;22;20013;-83
2023/06/05 13:25:08;;;;;;;0.00;0.00;;;24.60;66.80;;;;;;6299355;22;20012;-86
2023/06/05 13:27:34;;;;;;;0.00;0.00;;;;;;;;;;6296927;22;20030;-84
2023/06/05 13:30:02;;;;;;;0.00;0.00;;;;;;;;;;6300938;22;20099;-88
2023/06/05 13:32:28;;;;;;;0.00;0.00;;;;;;;;;;6303984;22;20010;-87
2023/06/05 13:34:54;;;;;;;0.00;0.00;;;;;;;;;;6303763;22;20003;-86